Terminal Aerodrome Forecast
Issued by NWS

Home | Current Version | Previous Version | Text Only | Print | Product List | Glossary On
Versions: 1 2 3 4 5 6 7 8 9 10 11 12 13 14 15 16 17 18 19 20 21 22
000
FTUS43 KAPX 260221 AAA
TAFAPN
TAF AMD
KAPN 260221Z 2602/2624 22008KT P6SM SCT050 BKN250 WS020/24030KT
     FM261400 20010KT P6SM SCT060 BKN250=

USA.gov is the U.S. government's official web portal to all federal, state and local government web resources and services.